METAR AND TAF INFORMATION
METAR FOR LECH
ADDS - METARS form results

(2003 UTC 03 August 2021)
Data provider http://aviationweather.gov/metar/data/
 
METAR text: LECH 031930Z AUTO 18005KT 150V210 CAVOK 24/17 Q1015
Conditions at: LECH (CASTELLON , ES) observed 1930 UTC 03 August 2021
Temperature: 24.0°C (75°F)
Dewpoint: 17.0°C (63°F) [RH = 65%]
Pressure (altimeter): 29.97 inches Hg (1015.0 mb)
Winds: from the S (180 degrees) at 6 MPH (5 knots; 2.6 m/s)
Visibility: 6 or more miles (10+ km)
Ceiling: ceiling and visibility are OK
Clouds: unknown
Weather: no significant weather observed at this time

 AIRPORT MAP

 RUNWAY INFORMATION

 AIRPORT FREQUENCIES

 AIRPORT NEAR NAVIGATION AIDS





Powered by Virtual Airlines Manager

Maps by Rafael Santos